sensor_id;sensor_type;location;lat;lon;timestamp;temperature;humidity
41644;DHT22;44236;48.098;11.582;2023-07-31T05:32:42;23.10;58.50
41644;DHT22;44236;48.098;11.582;2023-07-31T05:35:08;23.10;58.40
41644;DHT22;44236;48.098;11.582;2023-07-31T05:37:34;23.00;57.90
41644;DHT22;44236;48.098;11.582;2023-07-31T05:40:00;22.90;57.70
41644;DHT22;44236;48.098;11.582;2023-07-31T05:42:25;22.60;57.10
41644;DHT22;44236;48.098;11.582;2023-07-31T05:44:51;22.50;57.30
41644;DHT22;44236;48.098;11.582;2023-07-31T05:47:17;22.40;57.50
41644;DHT22;44236;48.098;11.582;2023-07-31T05:49:42;22.30;57.80
41644;DHT22;44236;48.098;11.582;2023-07-31T05:52:08;22.30;57.60
41644;DHT22;44236;48.098;11.582;2023-07-31T05:54:33;22.30;57.80
41644;DHT22;44236;48.098;11.582;2023-07-31T05:56:59;22.20;57.40
41644;DHT22;44236;48.098;11.582;2023-07-31T05:59:25;22.20;57.80
41644;DHT22;44236;48.098;11.582;2023-07-31T06:01:50;22.20;57.80
41644;DHT22;44236;48.098;11.582;2023-07-31T06:04:16;22.20;58.00
41644;DHT22;44236;48.098;11.582;2023-07-31T06:06:41;22.40;58.00
41644;DHT22;44236;48.098;11.582;2023-07-31T06:09:07;22.50;57.80
41644;DHT22;44236;48.098;11.582;2023-07-31T06:11:33;22.60;57.90
41644;DHT22;44236;48.098;11.582;2023-07-31T06:13:58;22.70;57.70
41644;DHT22;44236;48.098;11.582;2023-07-31T06:16:25;22.70;57.60
41644;DHT22;44236;48.098;11.582;2023-07-31T06:18:52;22.80;57.70
41644;DHT22;44236;48.098;11.582;2023-07-31T06:21:18;22.80;57.60
41644;DHT22;44236;48.098;11.582;2023-07-31T06:23:43;22.80;57.60
41644;DHT22;44236;48.098;11.582;2023-07-31T06:26:09;22.80;57.50
41644;DHT22;44236;48.098;11.582;2023-07-31T06:28:35;22.90;57.60
41644;DHT22;44236;48.098;11.582;2023-07-31T06:31:00;22.90;57.60
41644;DHT22;44236;48.098;11.582;2023-07-31T06:33:27;22.90;57.50
41644;DHT22;44236;48.098;11.582;2023-07-31T06:35:52;22.90;57.50
41644;DHT22;44236;48.098;11.582;2023-07-31T06:38:26;22.90;57.50
41644;DHT22;44236;48.098;11.582;2023-07-31T06:40:52;22.90;57.50
41644;DHT22;44236;48.098;11.582;2023-07-31T06:43:18;22.90;57.50
41644;DHT22;44236;48.098;11.582;2023-07-31T06:45:44;22.90;57.50
41644;DHT22;44236;48.098;11.582;2023-07-31T06:48:09;22.90;57.50
41644;DHT22;44236;48.098;11.582;2023-07-31T06:50:35;23.00;57.70
41644;DHT22;44236;48.098;11.582;2023-07-31T06:53:01;22.90;57.70
41644;DHT22;44236;48.098;11.582;2023-07-31T06:55:26;22.90;57.80
41644;DHT22;44236;48.098;11.582;2023-07-31T06:57:54;22.90;57.80
41644;DHT22;44236;48.098;11.582;2023-07-31T07:00:21;22.90;57.80
41644;DHT22;44236;48.098;11.582;2023-07-31T07:02:48;22.90;57.80
41644;DHT22;44236;48.098;11.582;2023-07-31T07:05:14;22.90;57.80
41644;DHT22;44236;48.098;11.582;2023-07-31T07:07:40;22.90;57.80
41644;DHT22;44236;48.098;11.582;2023-07-31T07:10:06;22.90;57.80
41644;DHT22;44236;48.098;11.582;2023-07-31T07:12:32;22.90;57.80
41644;DHT22;44236;48.098;11.582;2023-07-31T07:14:59;22.90;57.80
41644;DHT22;44236;48.098;11.582;2023-07-31T07:17:29;22.90;57.80
41644;DHT22;44236;48.098;11.582;2023-07-31T07:19:58;23.00;57.90
41644;DHT22;44236;48.098;11.582;2023-07-31T07:22:24;23.00;57.90
41644;DHT22;44236;48.098;11.582;2023-07-31T07:24:51;23.00;57.90
41644;DHT22;44236;48.098;11.582;2023-07-31T07:27:16;23.00;58.00
41644;DHT22;44236;48.098;11.582;2023-07-31T07:29:42;23.00;58.10
41644;DHT22;44236;48.098;11.582;2023-07-31T07:32:08;23.00;58.10
41644;DHT22;44236;48.098;11.582;2023-07-31T07:34:33;23.00;58.10
41644;DHT22;44236;48.098;11.582;2023-07-31T07:36:59;23.10;58.20
41644;DHT22;44236;48.098;11.582;2023-07-31T07:39:24;23.10;58.20
41644;DHT22;44236;48.098;11.582;2023-07-31T07:41:50;23.10;58.20
41644;DHT22;44236;48.098;11.582;2023-07-31T07:44:16;23.20;58.30
41644;DHT22;44236;48.098;11.582;2023-07-31T07:46:41;23.20;58.20
41644;DHT22;44236;48.098;11.582;2023-07-31T07:49:07;23.20;58.20
41644;DHT22;44236;48.098;11.582;2023-07-31T07:51:33;23.20;58.20
41644;DHT22;44236;48.098;11.582;2023-07-31T07:53:59;23.20;58.20
41644;DHT22;44236;48.098;11.582;2023-07-31T07:56:28;23.20;58.20
41644;DHT22;44236;48.098;11.582;2023-07-31T07:58:54;23.20;58.30
41644;DHT22;44236;48.098;11.582;2023-07-31T08:01:20;23.20;58.20
41644;DHT22;44236;48.098;11.582;2023-07-31T08:03:47;23.20;58.30
41644;DHT22;44236;48.098;11.582;2023-07-31T08:06:13;23.20;58.20
41644;DHT22;44236;48.098;11.582;2023-07-31T08:08:39;23.20;58.20
41644;DHT22;44236;48.098;11.582;2023-07-31T08:11:05;23.30;58.30
41644;DHT22;44236;48.098;11.582;2023-07-31T08:13:31;23.30;58.40
41644;DHT22;44236;48.098;11.582;2023-07-31T08:15:57;23.30;58.60
41644;DHT22;44236;48.098;11.582;2023-07-31T08:18:22;23.30;58.60
41644;DHT22;44236;48.098;11.582;2023-07-31T08:20:48;23.30;58.50
41644;DHT22;44236;48.098;11.582;2023-07-31T08:23:13;23.40;58.60
41644;DHT22;44236;48.098;11.582;2023-07-31T08:25:39;23.40;58.40
41644;DHT22;44236;48.098;11.582;2023-07-31T08:28:06;23.40;58.50
41644;DHT22;44236;48.098;11.582;2023-07-31T08:30:32;23.40;58.60
41644;DHT22;44236;48.098;11.582;2023-07-31T08:32:58;23.40;58.30
41644;DHT22;44236;48.098;11.582;2023-07-31T08:35:24;23.40;58.60
41644;DHT22;44236;48.098;11.582;2023-07-31T08:37:51;23.40;58.60
41644;DHT22;44236;48.098;11.582;2023-07-31T08:40:17;23.40;58.80
41644;DHT22;44236;48.098;11.582;2023-07-31T08:42:47;23.40;58.70
41644;DHT22;44236;48.098;11.582;2023-07-31T08:45:18;23.40;58.70
41644;DHT22;44236;48.098;11.582;2023-07-31T08:47:49;23.40;59.10
41644;DHT22;44236;48.098;11.582;2023-07-31T08:50:16;23.40;58.60
41644;DHT22;44236;48.098;11.582;2023-07-31T08:52:42;23.40;58.60
41644;DHT22;44236;48.098;11.582;2023-07-31T08:55:08;23.40;58.70
41644;DHT22;44236;48.098;11.582;2023-07-31T08:57:36;23.30;58.70
41644;DHT22;44236;48.098;11.582;2023-07-31T09:00:03;23.30;58.70
41644;DHT22;44236;48.098;11.582;2023-07-31T09:02:37;23.40;58.70
41644;DHT22;44236;48.098;11.582;2023-07-31T09:05:06;23.40;58.80
41644;DHT22;44236;48.098;11.582;2023-07-31T09:07:34;23.30;58.70
41644;DHT22;44236;48.098;11.582;2023-07-31T09:10:00;23.40;58.90
41644;DHT22;44236;48.098;11.582;2023-07-31T09:12:25;23.40;58.90
41644;DHT22;44236;48.098;11.582;2023-07-31T09:14:51;23.30;58.80
41644;DHT22;44236;48.098;11.582;2023-07-31T09:17:29;23.30;58.70
41644;DHT22;44236;48.098;11.582;2023-07-31T09:19:55;23.40;58.70
41644;DHT22;44236;48.098;11.582;2023-07-31T09:22:35;23.40;58.70
41644;DHT22;44236;48.098;11.582;2023-07-31T09:25:20;23.40;58.70
41644;DHT22;44236;48.098;11.582;2023-07-31T09:30:26;23.40;58.70
41644;DHT22;44236;48.098;11.582;2023-07-31T09:33:00;23.40;58.70
41644;DHT22;44236;48.098;11.582;2023-07-31T09:35:34;23.40;58.60
41644;DHT22;44236;48.098;11.582;2023-07-31T09:38:08;23.40;58.70
41644;DHT22;44236;48.098;11.582;2023-07-31T09:40:39;23.40;58.60
41644;DHT22;44236;48.098;11.582;2023-07-31T09:43:06;23.40;58.60
41644;DHT22;44236;48.098;11.582;2023-07-31T09:45:40;23.40;58.60
41644;DHT22;44236;48.098;11.582;2023-07-31T09:48:17;23.40;58.50
41644;DHT22;44236;48.098;11.582;2023-07-31T09:50:44;23.40;58.60
41644;DHT22;44236;48.098;11.582;2023-07-31T09:53:10;23.40;58.50
41644;DHT22;44236;48.098;11.582;2023-07-31T09:55:37;23.40;58.60
41644;DHT22;44236;48.098;11.582;2023-07-31T09:58:07;23.40;58.50
41644;DHT22;44236;48.098;11.582;2023-07-31T10:00:35;23.40;58.50
41644;DHT22;44236;48.098;11.582;2023-07-31T10:03:04;23.40;58.40
41644;DHT22;44236;48.098;11.582;2023-07-31T10:05:43;23.40;58.50
41644;DHT22;44236;48.098;11.582;2023-07-31T10:08:14;23.40;58.50
41644;DHT22;44236;48.098;11.582;2023-07-31T10:10:44;23.40;58.60
41644;DHT22;44236;48.098;11.582;2023-07-31T10:13:11;23.50;58.60
41644;DHT22;44236;48.098;11.582;2023-07-31T10:15:37;23.40;58.60
41644;DHT22;44236;48.098;11.582;2023-07-31T10:18:03;23.40;58.50
41644;DHT22;44236;48.098;11.582;2023-07-31T10:20:31;23.40;58.50
41644;DHT22;44236;48.098;11.582;2023-07-31T10:22:57;23.40;58.60
41644;DHT22;44236;48.098;11.582;2023-07-31T10:25:26;23.40;58.50
41644;DHT22;44236;48.098;11.582;2023-07-31T10:27:52;23.40;58.50
41644;DHT22;44236;48.098;11.582;2023-07-31T10:30:21;23.40;58.50
41644;DHT22;44236;48.098;11.582;2023-07-31T10:32:50;23.40;58.50
41644;DHT22;44236;48.098;11.582;2023-07-31T10:35:17;23.40;58.50
41644;DHT22;44236;48.098;11.582;2023-07-31T10:37:43;23.40;58.50
41644;DHT22;44236;48.098;11.582;2023-07-31T10:40:16;23.40;58.50
41644;DHT22;44236;48.098;11.582;2023-07-31T10:42:46;23.40;58.50
41644;DHT22;44236;48.098;11.582;2023-07-31T10:45:13;23.40;58.50
41644;DHT22;44236;48.098;11.582;2023-07-31T10:50:22;23.40;58.40
41644;DHT22;44236;48.098;11.582;2023-07-31T10:52:53;23.40;58.40
41644;DHT22;44236;48.098;11.582;2023-07-31T10:55:41;23.40;58.40
41644;DHT22;44236;48.098;11.582;2023-07-31T10:58:08;23.40;58.30
41644;DHT22;44236;48.098;11.582;2023-07-31T11:00:37;23.40;58.30
41644;DHT22;44236;48.098;11.582;2023-07-31T11:03:03;23.50;57.60
41644;DHT22;44236;48.098;11.582;2023-07-31T11:08:27;23.50;56.90
41644;DHT22;44236;48.098;11.582;2023-07-31T11:15:54;23.50;57.30
41644;DHT22;44236;48.098;11.582;2023-07-31T11:18:19;23.50;57.00
41644;DHT22;44236;48.098;11.582;2023-07-31T11:20:45;23.50;56.80
41644;DHT22;44236;48.098;11.582;2023-07-31T11:23:11;23.50;56.50
41644;DHT22;44236;48.098;11.582;2023-07-31T11:25:39;23.50;56.40
41644;DHT22;44236;48.098;11.582;2023-07-31T11:28:09;23.50;56.80
41644;DHT22;44236;48.098;11.582;2023-07-31T11:30:35;23.50;56.50
41644;DHT22;44236;48.098;11.582;2023-07-31T11:33:02;23.50;56.50
41644;DHT22;44236;48.098;11.582;2023-07-31T11:35:32;23.50;56.90
41644;DHT22;44236;48.098;11.582;2023-07-31T11:37:58;23.50;56.00
41644;DHT22;44236;48.098;11.582;2023-07-31T11:40:24;23.50;56.30
41644;DHT22;44236;48.098;11.582;2023-07-31T11:42:59;23.50;55.70
41644;DHT22;44236;48.098;11.582;2023-07-31T11:45:29;23.50;54.90
41644;DHT22;44236;48.098;11.582;2023-07-31T11:47:56;23.50;55.10
41644;DHT22;44236;48.098;11.582;2023-07-31T11:50:25;23.50;55.10
41644;DHT22;44236;48.098;11.582;2023-07-31T11:52:56;23.50;55.30
41644;DHT22;44236;48.098;11.582;2023-07-31T11:55:23;23.50;54.70
41644;DHT22;44236;48.098;11.582;2023-07-31T11:57:49;23.50;55.30
41644;DHT22;44236;48.098;11.582;2023-07-31T12:00:16;23.50;55.20
41644;DHT22;44236;48.098;11.582;2023-07-31T12:02:42;23.50;55.20
41644;DHT22;44236;48.098;11.582;2023-07-31T12:05:12;23.60;55.30
41644;DHT22;44236;48.098;11.582;2023-07-31T12:07:49;23.60;55.10
41644;DHT22;44236;48.098;11.582;2023-07-31T12:10:29;23.60;54.50
41644;DHT22;44236;48.098;11.582;2023-07-31T12:13:06;23.50;54.70
41644;DHT22;44236;48.098;11.582;2023-07-31T12:15:38;23.50;54.10
41644;DHT22;44236;48.098;11.582;2023-07-31T12:20:35;23.60;54.00
41644;DHT22;44236;48.098;11.582;2023-07-31T12:23:01;23.60;53.70
41644;DHT22;44236;48.098;11.582;2023-07-31T12:25:31;23.60;53.80
41644;DHT22;44236;48.098;11.582;2023-07-31T12:27:57;23.40;53.30
41644;DHT22;44236;48.098;11.582;2023-07-31T12:30:33;23.60;54.40
41644;DHT22;44236;48.098;11.582;2023-07-31T12:33:13;23.60;52.90
41644;DHT22;44236;48.098;11.582;2023-07-31T12:35:41;23.60;52.80
41644;DHT22;44236;48.098;11.582;2023-07-31T12:38:07;23.60;53.60
41644;DHT22;44236;48.098;11.582;2023-07-31T12:40:37;23.60;53.40
41644;DHT22;44236;48.098;11.582;2023-07-31T12:43:02;23.60;53.20
41644;DHT22;44236;48.098;11.582;2023-07-31T12:45:29;23.60;53.10
41644;DHT22;44236;48.098;11.582;2023-07-31T12:47:55;23.60;53.10
41644;DHT22;44236;48.098;11.582;2023-07-31T12:50:21;23.60;53.10
41644;DHT22;44236;48.098;11.582;2023-07-31T12:52:47;23.60;53.40
41644;DHT22;44236;48.098;11.582;2023-07-31T12:55:12;23.60;53.60
41644;DHT22;44236;48.098;11.582;2023-07-31T12:57:39;23.60;53.80
41644;DHT22;44236;48.098;11.582;2023-07-31T13:00:06;23.60;53.80
41644;DHT22;44236;48.098;11.582;2023-07-31T13:02:32;23.60;54.00
41644;DHT22;44236;48.098;11.582;2023-07-31T13:04:57;23.60;54.30
41644;DHT22;44236;48.098;11.582;2023-07-31T13:07:23;23.60;54.20
41644;DHT22;44236;48.098;11.582;2023-07-31T13:09:49;23.60;54.10
41644;DHT22;44236;48.098;11.582;2023-07-31T13:12:14;23.60;54.20
41644;DHT22;44236;48.098;11.582;2023-07-31T13:14:40;23.60;54.20
41644;DHT22;44236;48.098;11.582;2023-07-31T13:17:05;23.60;54.40
41644;DHT22;44236;48.098;11.582;2023-07-31T13:19:31;23.70;54.40
41644;DHT22;44236;48.098;11.582;2023-07-31T13:21:57;23.60;54.50
41644;DHT22;44236;48.098;11.582;2023-07-31T13:24:22;23.60;54.60
41644;DHT22;44236;48.098;11.582;2023-07-31T13:26:48;23.70;54.60
41644;DHT22;44236;48.098;11.582;2023-07-31T13:29:13;23.70;54.70
41644;DHT22;44236;48.098;11.582;2023-07-31T13:31:39;23.60;54.70
41644;DHT22;44236;48.098;11.582;2023-07-31T13:34:05;23.60;54.80
41644;DHT22;44236;48.098;11.582;2023-07-31T13:36:30;23.60;54.70
41644;DHT22;44236;48.098;11.582;2023-07-31T13:38:56;23.70;54.90
41644;DHT22;44236;48.098;11.582;2023-07-31T13:41:21;23.70;54.90
41644;DHT22;44236;48.098;11.582;2023-07-31T13:43:47;23.70;55.00
41644;DHT22;44236;48.098;11.582;2023-07-31T13:46:12;23.70;55.00
41644;DHT22;44236;48.098;11.582;2023-07-31T13:48:38;23.70;55.10
41644;DHT22;44236;48.098;11.582;2023-07-31T13:51:03;23.70;55.10
41644;DHT22;44236;48.098;11.582;2023-07-31T13:53:29;23.70;55.20
41644;DHT22;44236;48.098;11.582;2023-07-31T13:55:55;23.70;55.20
41644;DHT22;44236;48.098;11.582;2023-07-31T13:58:21;23.70;55.30
41644;DHT22;44236;48.098;11.582;2023-07-31T14:00:46;23.70;55.30
41644;DHT22;44236;48.098;11.582;2023-07-31T14:03:12;23.70;55.40
41644;DHT22;44236;48.098;11.582;2023-07-31T14:05:38;23.70;55.40
41644;DHT22;44236;48.098;11.582;2023-07-31T14:08:03;23.70;55.40
41644;DHT22;44236;48.098;11.582;2023-07-31T14:10:29;23.70;55.40
41644;DHT22;44236;48.098;11.582;2023-07-31T14:12:54;23.70;55.50
41644;DHT22;44236;48.098;11.582;2023-07-31T14:15:20;23.70;55.50
41644;DHT22;44236;48.098;11.582;2023-07-31T14:17:46;23.70;55.50
41644;DHT22;44236;48.098;11.582;2023-07-31T14:20:12;23.70;55.50
41644;DHT22;44236;48.098;11.582;2023-07-31T14:22:37;23.70;55.60
41644;DHT22;44236;48.098;11.582;2023-07-31T14:25:03;23.70;55.70
41644;DHT22;44236;48.098;11.582;2023-07-31T14:27:29;23.70;55.70
41644;DHT22;44236;48.098;11.582;2023-07-31T14:29:55;23.80;55.70
41644;DHT22;44236;48.098;11.582;2023-07-31T14:32:24;23.70;55.80
41644;DHT22;44236;48.098;11.582;2023-07-31T14:34:51;23.70;55.80
41644;DHT22;44236;48.098;11.582;2023-07-31T14:37:16;23.70;55.80
41644;DHT22;44236;48.098;11.582;2023-07-31T14:39:42;23.70;55.80
41644;DHT22;44236;48.098;11.582;2023-07-31T14:42:09;23.70;55.80
41644;DHT22;44236;48.098;11.582;2023-07-31T14:44:34;23.70;55.80
41644;DHT22;44236;48.098;11.582;2023-07-31T14:47:00;23.70;55.90
41644;DHT22;44236;48.098;11.582;2023-07-31T14:49:26;23.80;55.90
41644;DHT22;44236;48.098;11.582;2023-07-31T14:51:53;23.80;56.00
41644;DHT22;44236;48.098;11.582;2023-07-31T14:54:19;23.70;55.90
41644;DHT22;44236;48.098;11.582;2023-07-31T14:56:45;23.70;56.00
41644;DHT22;44236;48.098;11.582;2023-07-31T14:59:10;23.80;56.00
41644;DHT22;44236;48.098;11.582;2023-07-31T15:01:37;23.70;56.50
41644;DHT22;44236;48.098;11.582;2023-07-31T15:04:02;23.70;56.10
41644;DHT22;44236;48.098;11.582;2023-07-31T15:06:28;23.80;56.10
41644;DHT22;44236;48.098;11.582;2023-07-31T15:08:54;23.80;56.10
41644;DHT22;44236;48.098;11.582;2023-07-31T15:11:19;23.80;56.10
41644;DHT22;44236;48.098;11.582;2023-07-31T15:13:45;23.80;56.20
41644;DHT22;44236;48.098;11.582;2023-07-31T15:16:11;23.80;56.20
41644;DHT22;44236;48.098;11.582;2023-07-31T15:18:36;23.80;56.20
41644;DHT22;44236;48.098;11.582;2023-07-31T15:21:02;23.80;56.30
41644;DHT22;44236;48.098;11.582;2023-07-31T15:23:28;23.80;56.30
41644;DHT22;44236;48.098;11.582;2023-07-31T15:25:53;23.80;56.30
41644;DHT22;44236;48.098;11.582;2023-07-31T15:28:19;23.80;56.30
41644;DHT22;44236;48.098;11.582;2023-07-31T15:30:44;23.80;56.40
41644;DHT22;44236;48.098;11.582;2023-07-31T15:33:10;23.80;56.40
41644;DHT22;44236;48.098;11.582;2023-07-31T15:35:36;23.80;56.30
41644;DHT22;44236;48.098;11.582;2023-07-31T15:38:01;23.80;56.40
41644;DHT22;44236;48.098;11.582;2023-07-31T15:40:27;23.80;56.40
41644;DHT22;44236;48.098;11.582;2023-07-31T15:42:53;23.80;56.40
41644;DHT22;44236;48.098;11.582;2023-07-31T15:45:18;23.80;56.50
41644;DHT22;44236;48.098;11.582;2023-07-31T15:47:44;23.80;56.50
41644;DHT22;44236;48.098;11.582;2023-07-31T15:50:10;23.80;56.50
41644;DHT22;44236;48.098;11.582;2023-07-31T15:52:35;23.90;56.60
41644;DHT22;44236;48.098;11.582;2023-07-31T15:55:02;23.80;56.60
41644;DHT22;44236;48.098;11.582;2023-07-31T15:57:27;23.80;56.60
41644;DHT22;44236;48.098;11.582;2023-07-31T15:59:53;23.80;56.60
41644;DHT22;44236;48.098;11.582;2023-07-31T16:02:19;23.80;56.60
41644;DHT22;44236;48.098;11.582;2023-07-31T16:04:44;23.80;56.70
41644;DHT22;44236;48.098;11.582;2023-07-31T16:07:10;23.90;56.70
41644;DHT22;44236;48.098;11.582;2023-07-31T16:09:37;23.80;56.70
41644;DHT22;44236;48.098;11.582;2023-07-31T16:12:03;23.80;56.70
41644;DHT22;44236;48.098;11.582;2023-07-31T16:14:30;23.90;55.40
41644;DHT22;44236;48.098;11.582;2023-07-31T16:16:55;23.90;54.70
41644;DHT22;44236;48.098;11.582;2023-07-31T16:19:21;23.90;54.90
41644;DHT22;44236;48.098;11.582;2023-07-31T16:21:47;23.90;54.20
41644;DHT22;44236;48.098;11.582;2023-07-31T16:24:12;23.90;53.70
41644;DHT22;44236;48.098;11.582;2023-07-31T16:26:38;23.90;53.20
41644;DHT22;44236;48.098;11.582;2023-07-31T16:29:03;23.80;55.10
41644;DHT22;44236;48.098;11.582;2023-07-31T16:31:29;23.90;54.00
41644;DHT22;44236;48.098;11.582;2023-07-31T16:33:55;23.90;53.50
41644;DHT22;44236;48.098;11.582;2023-07-31T16:36:23;23.90;52.80
41644;DHT22;44236;48.098;11.582;2023-07-31T16:38:49;23.90;52.60
41644;DHT22;44236;48.098;11.582;2023-07-31T16:41:15;23.90;53.20
41644;DHT22;44236;48.098;11.582;2023-07-31T16:43:40;23.80;53.10
41644;DHT22;44236;48.098;11.582;2023-07-31T16:46:06;23.90;52.90
41644;DHT22;44236;48.098;11.582;2023-07-31T16:48:31;23.80;52.50
41644;DHT22;44236;48.098;11.582;2023-07-31T16:50:57;23.80;52.30
41644;DHT22;44236;48.098;11.582;2023-07-31T16:53:22;23.80;53.30
41644;DHT22;44236;48.098;11.582;2023-07-31T16:55:48;23.80;52.70
41644;DHT22;44236;48.098;11.582;2023-07-31T16:58:14;23.80;52.80
41644;DHT22;44236;48.098;11.582;2023-07-31T17:00:39;23.70;52.20
41644;DHT22;44236;48.098;11.582;2023-07-31T17:03:05;23.70;52.70
41644;DHT22;44236;48.098;11.582;2023-07-31T17:05:31;23.80;53.30
41644;DHT22;44236;48.098;11.582;2023-07-31T17:07:57;23.70;53.40
41644;DHT22;44236;48.098;11.582;2023-07-31T17:10:22;23.80;54.30
41644;DHT22;44236;48.098;11.582;2023-07-31T17:12:48;23.80;53.80
41644;DHT22;44236;48.098;11.582;2023-07-31T17:15:14;23.70;53.40
41644;DHT22;44236;48.098;11.582;2023-07-31T17:17:40;23.80;53.90
41644;DHT22;44236;48.098;11.582;2023-07-31T17:20:06;23.80;53.50
41644;DHT22;44236;48.098;11.582;2023-07-31T17:22:32;23.80;53.90
41644;DHT22;44236;48.098;11.582;2023-07-31T17:24:57;23.70;53.40
41644;DHT22;44236;48.098;11.582;2023-07-31T17:27:23;23.80;53.80
41644;DHT22;44236;48.098;11.582;2023-07-31T17:29:50;23.70;52.70
41644;DHT22;44236;48.098;11.582;2023-07-31T17:32:16;23.70;52.70
41644;DHT22;44236;48.098;11.582;2023-07-31T17:34:41;23.70;52.50
41644;DHT22;44236;48.098;11.582;2023-07-31T17:37:08;23.70;52.70
41644;DHT22;44236;48.098;11.582;2023-07-31T17:39:35;23.70;52.40
41644;DHT22;44236;48.098;11.582;2023-07-31T17:42:01;23.70;52.30
41644;DHT22;44236;48.098;11.582;2023-07-31T17:44:26;23.60;52.50
41644;DHT22;44236;48.098;11.582;2023-07-31T17:46:52;23.60;52.50
41644;DHT22;44236;48.098;11.582;2023-07-31T17:49:18;23.70;52.80
41644;DHT22;44236;48.098;11.582;2023-07-31T17:51:44;23.60;52.70
41644;DHT22;44236;48.098;11.582;2023-07-31T17:54:09;23.60;52.60
41644;DHT22;44236;48.098;11.582;2023-07-31T17:56:35;23.60;52.70
41644;DHT22;44236;48.098;11.582;2023-07-31T17:59:04;23.60;52.50
41644;DHT22;44236;48.098;11.582;2023-07-31T18:01:30;23.60;52.50
41644;DHT22;44236;48.098;11.582;2023-07-31T18:03:56;23.60;52.40
41644;DHT22;44236;48.098;11.582;2023-07-31T18:06:21;23.50;52.50
41644;DHT22;44236;48.098;11.582;2023-07-31T18:08:47;23.50;52.40
41644;DHT22;44236;48.098;11.582;2023-07-31T18:11:12;23.50;52.40
41644;DHT22;44236;48.098;11.582;2023-07-31T18:13:39;23.50;52.70
41644;DHT22;44236;48.098;11.582;2023-07-31T18:16:05;23.50;52.60
41644;DHT22;44236;48.098;11.582;2023-07-31T18:18:30;23.50;53.00
41644;DHT22;44236;48.098;11.582;2023-07-31T18:20:56;23.50;53.10
41644;DHT22;44236;48.098;11.582;2023-07-31T18:23:21;23.50;53.40
41644;DHT22;44236;48.098;11.582;2023-07-31T18:25:47;23.50;53.30
41644;DHT22;44236;48.098;11.582;2023-07-31T18:28:13;23.40;53.00
41644;DHT22;44236;48.098;11.582;2023-07-31T18:30:38;23.50;53.30
41644;DHT22;44236;48.098;11.582;2023-07-31T18:33:05;23.50;53.50
41644;DHT22;44236;48.098;11.582;2023-07-31T18:35:30;23.50;53.40
41644;DHT22;44236;48.098;11.582;2023-07-31T18:37:56;23.40;53.50
41644;DHT22;44236;48.098;11.582;2023-07-31T18:40:21;23.40;53.50
41644;DHT22;44236;48.098;11.582;2023-07-31T18:42:47;23.40;53.20
41644;DHT22;44236;48.098;11.582;2023-07-31T18:45:13;23.50;53.50
41644;DHT22;44236;48.098;11.582;2023-07-31T18:47:38;23.50;53.60
41644;DHT22;44236;48.098;11.582;2023-07-31T18:50:04;23.50;53.80
41644;DHT22;44236;48.098;11.582;2023-07-31T18:52:31;23.50;53.80
41644;DHT22;44236;48.098;11.582;2023-07-31T18:54:57;23.50;53.80
41644;DHT22;44236;48.098;11.582;2023-07-31T18:57:22;23.50;53.80
41644;DHT22;44236;48.098;11.582;2023-07-31T18:59:48;23.60;54.00
41644;DHT22;44236;48.098;11.582;2023-07-31T19:02:13;23.60;54.10
41644;DHT22;44236;48.098;11.582;2023-07-31T19:04:39;23.60;54.30
41644;DHT22;44236;48.098;11.582;2023-07-31T19:07:05;23.70;54.40
41644;DHT22;44236;48.098;11.582;2023-07-31T19:09:32;23.70;54.40
41644;DHT22;44236;48.098;11.582;2023-07-31T19:11:58;23.70;54.50
41644;DHT22;44236;48.098;11.582;2023-07-31T19:14:24;23.80;54.50
41644;DHT22;44236;48.098;11.582;2023-07-31T19:16:50;23.90;54.60
41644;DHT22;44236;48.098;11.582;2023-07-31T19:19:16;23.90;54.50
41644;DHT22;44236;48.098;11.582;2023-07-31T19:21:42;23.90;54.50
41644;DHT22;44236;48.098;11.582;2023-07-31T19:24:08;24.00;54.50
41644;DHT22;44236;48.098;11.582;2023-07-31T19:26:33;24.00;54.30
41644;DHT22;44236;48.098;11.582;2023-07-31T19:28:59;24.00;54.50
41644;DHT22;44236;48.098;11.582;2023-07-31T19:31:24;24.10;54.30
41644;DHT22;44236;48.098;11.582;2023-07-31T19:33:50;24.20;54.50
41644;DHT22;44236;48.098;11.582;2023-07-31T19:36:15;24.20;54.50
41644;DHT22;44236;48.098;11.582;2023-07-31T19:38:41;24.20;54.40
41644;DHT22;44236;48.098;11.582;2023-07-31T19:41:07;24.20;54.40
41644;DHT22;44236;48.098;11.582;2023-07-31T19:43:32;24.30;54.40
41644;DHT22;44236;48.098;11.582;2023-07-31T19:45:58;24.30;54.30
41644;DHT22;44236;48.098;11.582;2023-07-31T19:48:23;24.30;54.30
41644;DHT22;44236;48.098;11.582;2023-07-31T19:50:49;24.40;54.40
41644;DHT22;44236;48.098;11.582;2023-07-31T19:53:15;24.40;54.40
41644;DHT22;44236;48.098;11.582;2023-07-31T19:55:40;24.40;54.40
41644;DHT22;44236;48.098;11.582;2023-07-31T19:58:06;24.40;54.60
41644;DHT22;44236;48.098;11.582;2023-07-31T20:00:32;24.40;54.50
41644;DHT22;44236;48.098;11.582;2023-07-31T20:02:57;24.40;54.50
41644;DHT22;44236;48.098;11.582;2023-07-31T20:05:25;24.40;54.50
41644;DHT22;44236;48.098;11.582;2023-07-31T20:07:51;24.40;54.50
41644;DHT22;44236;48.098;11.582;2023-07-31T20:10:16;24.40;54.50
41644;DHT22;44236;48.098;11.582;2023-07-31T20:12:42;24.40;54.60
41644;DHT22;44236;48.098;11.582;2023-07-31T20:15:18;24.40;54.60
41644;DHT22;44236;48.098;11.582;2023-07-31T20:17:44;24.40;54.70
41644;DHT22;44236;48.098;11.582;2023-07-31T20:20:10;24.40;54.80
41644;DHT22;44236;48.098;11.582;2023-07-31T20:22:36;24.40;54.80
41644;DHT22;44236;48.098;11.582;2023-07-31T20:25:02;24.40;54.90
41644;DHT22;44236;48.098;11.582;2023-07-31T20:27:28;24.30;54.90
41644;DHT22;44236;48.098;11.582;2023-07-31T20:29:53;24.40;55.00
41644;DHT22;44236;48.098;11.582;2023-07-31T20:32:19;24.30;55.00
41644;DHT22;44236;48.098;11.582;2023-07-31T20:34:45;24.30;55.10
41644;DHT22;44236;48.098;11.582;2023-07-31T20:37:10;24.30;55.20
41644;DHT22;44236;48.098;11.582;2023-07-31T20:39:36;24.30;55.20
41644;DHT22;44236;48.098;11.582;2023-07-31T20:42:01;24.30;55.20
41644;DHT22;44236;48.098;11.582;2023-07-31T20:44:27;24.30;55.30
41644;DHT22;44236;48.098;11.582;2023-07-31T20:46:52;24.20;55.30
41644;DHT22;44236;48.098;11.582;2023-07-31T20:49:18;24.20;55.30
41644;DHT22;44236;48.098;11.582;2023-07-31T20:51:44;24.20;55.40
41644;DHT22;44236;48.098;11.582;2023-07-31T20:54:10;24.20;55.40
41644;DHT22;44236;48.098;11.582;2023-07-31T20:56:35;24.20;55.50
41644;DHT22;44236;48.098;11.582;2023-07-31T20:59:01;24.20;55.50